sensor_id;sensor_type;location;lat;lon;timestamp;P1;durP1;ratioP1;P2;durP2;ratioP2
80681;SDS011;70045;40.200;44.582;2023-07-13T00:01:50;5.40;;;2.15;;
80681;SDS011;70045;40.200;44.582;2023-07-13T00:04:16;6.05;;;2.42;;
80681;SDS011;70045;40.200;44.582;2023-07-13T00:06:43;4.55;;;1.73;;
80681;SDS011;70045;40.200;44.582;2023-07-13T00:09:19;4.25;;;1.80;;
80681;SDS011;70045;40.200;44.582;2023-07-13T00:11:45;4.82;;;1.80;;
80681;SDS011;70045;40.200;44.582;2023-07-13T00:14:13;2.42;;;1.42;;
80681;SDS011;70045;40.200;44.582;2023-07-13T00:16:39;1.73;;;1.17;;
80681;SDS011;70045;40.200;44.582;2023-07-13T00:19:05;2.75;;;1.23;;
80681;SDS011;70045;40.200;44.582;2023-07-13T00:21:31;2.33;;;1.35;;
80681;SDS011;70045;40.200;44.582;2023-07-13T00:23:56;2.50;;;1.30;;
80681;SDS011;70045;40.200;44.582;2023-07-13T00:26:24;1.83;;;1.30;;
80681;SDS011;70045;40.200;44.582;2023-07-13T00:28:50;1.55;;;0.93;;
80681;SDS011;70045;40.200;44.582;2023-07-13T00:31:15;2.00;;;1.02;;
80681;SDS011;70045;40.200;44.582;2023-07-13T00:33:41;1.80;;;1.30;;
80681;SDS011;70045;40.200;44.582;2023-07-13T00:36:07;3.70;;;1.40;;
80681;SDS011;70045;40.200;44.582;2023-07-13T00:38:36;2.47;;;1.45;;
80681;SDS011;70045;40.200;44.582;2023-07-13T00:41:02;2.00;;;1.25;;
80681;SDS011;70045;40.200;44.582;2023-07-13T00:43:29;2.30;;;1.30;;
80681;SDS011;70045;40.200;44.582;2023-07-13T00:48:25;2.20;;;1.38;;
80681;SDS011;70045;40.200;44.582;2023-07-13T00:50:58;2.20;;;1.20;;
80681;SDS011;70045;40.200;44.582;2023-07-13T00:53:27;2.22;;;1.17;;
80681;SDS011;70045;40.200;44.582;2023-07-13T00:55:56;3.03;;;1.42;;
80681;SDS011;70045;40.200;44.582;2023-07-13T00:58:23;4.05;;;1.33;;
80681;SDS011;70045;40.200;44.582;2023-07-13T01:00:52;3.28;;;1.50;;
80681;SDS011;70045;40.200;44.582;2023-07-13T01:03:20;2.17;;;1.10;;
80681;SDS011;70045;40.200;44.582;2023-07-13T01:05:46;2.42;;;1.25;;
80681;SDS011;70045;40.200;44.582;2023-07-13T01:08:14;3.42;;;1.38;;
80681;SDS011;70045;40.200;44.582;2023-07-13T01:10:40;2.25;;;1.30;;
80681;SDS011;70045;40.200;44.582;2023-07-13T01:13:06;2.30;;;1.35;;
80681;SDS011;70045;40.200;44.582;2023-07-13T01:18:10;2.13;;;1.30;;
80681;SDS011;70045;40.200;44.582;2023-07-13T01:20:38;3.13;;;1.52;;
80681;SDS011;70045;40.200;44.582;2023-07-13T01:23:11;2.25;;;1.30;;
80681;SDS011;70045;40.200;44.582;2023-07-13T01:25:36;2.20;;;1.40;;
80681;SDS011;70045;40.200;44.582;2023-07-13T01:28:06;3.47;;;1.58;;
80681;SDS011;70045;40.200;44.582;2023-07-13T01:30:32;3.35;;;1.52;;
80681;SDS011;70045;40.200;44.582;2023-07-13T01:32:58;4.15;;;1.63;;
80681;SDS011;70045;40.200;44.582;2023-07-13T01:35:24;3.42;;;1.52;;
80681;SDS011;70045;40.200;44.582;2023-07-13T01:37:49;4.53;;;1.60;;
80681;SDS011;70045;40.200;44.582;2023-07-13T01:40:17;2.55;;;1.40;;
80681;SDS011;70045;40.200;44.582;2023-07-13T01:42:43;3.20;;;1.83;;
80681;SDS011;70045;40.200;44.582;2023-07-13T01:45:08;3.47;;;1.60;;
80681;SDS011;70045;40.200;44.582;2023-07-13T01:47:34;3.72;;;1.60;;
80681;SDS011;70045;40.200;44.582;2023-07-13T01:49:59;2.22;;;1.30;;
80681;SDS011;70045;40.200;44.582;2023-07-13T01:52:27;4.07;;;1.48;;
80681;SDS011;70045;40.200;44.582;2023-07-13T01:54:53;4.30;;;1.70;;
80681;SDS011;70045;40.200;44.582;2023-07-13T01:57:18;3.35;;;1.67;;
80681;SDS011;70045;40.200;44.582;2023-07-13T01:59:44;3.17;;;1.58;;
80681;SDS011;70045;40.200;44.582;2023-07-13T02:02:09;3.28;;;1.77;;
80681;SDS011;70045;40.200;44.582;2023-07-13T02:04:37;2.85;;;1.52;;
80681;SDS011;70045;40.200;44.582;2023-07-13T02:07:02;2.03;;;1.40;;
80681;SDS011;70045;40.200;44.582;2023-07-13T02:09:28;2.42;;;1.30;;
80681;SDS011;70045;40.200;44.582;2023-07-13T02:11:53;3.92;;;1.73;;
80681;SDS011;70045;40.200;44.582;2023-07-13T02:14:19;4.28;;;1.80;;
80681;SDS011;70045;40.200;44.582;2023-07-13T02:16:47;4.60;;;2.08;;
80681;SDS011;70045;40.200;44.582;2023-07-13T02:19:12;4.20;;;1.88;;
80681;SDS011;70045;40.200;44.582;2023-07-13T02:21:38;6.95;;;1.83;;
80681;SDS011;70045;40.200;44.582;2023-07-13T02:24:03;3.67;;;1.73;;
80681;SDS011;70045;40.200;44.582;2023-07-13T02:26:29;3.28;;;1.90;;
80681;SDS011;70045;40.200;44.582;2023-07-13T02:28:57;5.25;;;2.10;;
80681;SDS011;70045;40.200;44.582;2023-07-13T02:31:23;5.95;;;2.15;;
80681;SDS011;70045;40.200;44.582;2023-07-13T02:33:48;5.55;;;1.67;;
80681;SDS011;70045;40.200;44.582;2023-07-13T02:36:13;3.70;;;1.67;;
80681;SDS011;70045;40.200;44.582;2023-07-13T02:38:39;5.15;;;2.22;;
80681;SDS011;70045;40.200;44.582;2023-07-13T02:41:07;5.28;;;1.80;;
80681;SDS011;70045;40.200;44.582;2023-07-13T02:43:34;7.93;;;1.90;;
80681;SDS011;70045;40.200;44.582;2023-07-13T02:46:00;4.25;;;2.00;;
80681;SDS011;70045;40.200;44.582;2023-07-13T02:48:26;6.50;;;2.28;;
80681;SDS011;70045;40.200;44.582;2023-07-13T02:50:52;7.65;;;2.22;;
80681;SDS011;70045;40.200;44.582;2023-07-13T02:53:20;5.22;;;1.85;;
80681;SDS011;70045;40.200;44.582;2023-07-13T02:55:45;6.03;;;1.90;;
80681;SDS011;70045;40.200;44.582;2023-07-13T02:58:11;5.75;;;2.10;;
80681;SDS011;70045;40.200;44.582;2023-07-13T03:00:39;4.85;;;1.98;;
80681;SDS011;70045;40.200;44.582;2023-07-13T03:03:04;5.47;;;2.00;;
80681;SDS011;70045;40.200;44.582;2023-07-13T03:05:33;5.25;;;2.13;;
80681;SDS011;70045;40.200;44.582;2023-07-13T03:07:58;4.35;;;2.22;;
80681;SDS011;70045;40.200;44.582;2023-07-13T03:10:23;5.28;;;2.03;;
80681;SDS011;70045;40.200;44.582;2023-07-13T03:12:49;3.58;;;2.00;;
80681;SDS011;70045;40.200;44.582;2023-07-13T03:15:14;4.82;;;2.28;;
80681;SDS011;70045;40.200;44.582;2023-07-13T06:26:21;8.27;;;3.60;;
80681;SDS011;70045;40.200;44.582;2023-07-13T06:28:46;10.43;;;3.20;;
80681;SDS011;70045;40.200;44.582;2023-07-13T06:31:12;8.60;;;3.10;;
80681;SDS011;70045;40.200;44.582;2023-07-13T06:33:39;10.13;;;3.38;;
80681;SDS011;70045;40.200;44.582;2023-07-13T06:36:05;10.80;;;3.70;;
80681;SDS011;70045;40.200;44.582;2023-07-13T06:38:34;9.68;;;3.55;;
80681;SDS011;70045;40.200;44.582;2023-07-13T06:41:00;12.48;;;3.72;;
80681;SDS011;70045;40.200;44.582;2023-07-13T06:43:25;7.93;;;3.20;;
80681;SDS011;70045;40.200;44.582;2023-07-13T06:45:51;10.55;;;4.35;;
80681;SDS011;70045;40.200;44.582;2023-07-13T06:48:19;12.10;;;3.22;;
80681;SDS011;70045;40.200;44.582;2023-07-13T06:50:48;9.02;;;3.47;;
80681;SDS011;70045;40.200;44.582;2023-07-13T06:55:39;8.33;;;3.83;;
80681;SDS011;70045;40.200;44.582;2023-07-13T06:58:05;9.68;;;3.50;;
80681;SDS011;70045;40.200;44.582;2023-07-13T07:00:31;10.20;;;3.70;;
80681;SDS011;70045;40.200;44.582;2023-07-13T07:02:59;7.72;;;3.78;;
80681;SDS011;70045;40.200;44.582;2023-07-13T07:05:25;12.10;;;3.47;;
80681;SDS011;70045;40.200;44.582;2023-07-13T07:07:51;9.15;;;3.22;;
80681;SDS011;70045;40.200;44.582;2023-07-13T07:10:17;11.55;;;3.45;;
80681;SDS011;70045;40.200;44.582;2023-07-13T07:12:44;8.98;;;3.45;;
80681;SDS011;70045;40.200;44.582;2023-07-13T07:15:12;9.35;;;3.22;;
80681;SDS011;70045;40.200;44.582;2023-07-13T07:17:38;9.65;;;3.45;;
80681;SDS011;70045;40.200;44.582;2023-07-13T07:20:04;9.77;;;4.00;;
80681;SDS011;70045;40.200;44.582;2023-07-13T07:22:30;9.95;;;3.58;;
80681;SDS011;70045;40.200;44.582;2023-07-13T07:24:56;8.13;;;3.20;;
80681;SDS011;70045;40.200;44.582;2023-07-13T07:27:25;12.32;;;3.53;;
80681;SDS011;70045;40.200;44.582;2023-07-13T07:29:51;9.27;;;3.60;;
80681;SDS011;70045;40.200;44.582;2023-07-13T07:32:16;10.15;;;3.83;;
80681;SDS011;70045;40.200;44.582;2023-07-13T07:34:42;9.18;;;3.33;;
80681;SDS011;70045;40.200;44.582;2023-07-13T07:37:09;8.13;;;3.20;;
80681;SDS011;70045;40.200;44.582;2023-07-13T07:39:39;11.32;;;3.72;;
80681;SDS011;70045;40.200;44.582;2023-07-13T07:42:05;19.60;;;3.72;;
80681;SDS011;70045;40.200;44.582;2023-07-13T07:44:31;9.00;;;3.60;;
80681;SDS011;70045;40.200;44.582;2023-07-13T07:46:57;10.93;;;3.80;;
80681;SDS011;70045;40.200;44.582;2023-07-13T07:49:23;9.00;;;3.13;;
80681;SDS011;70045;40.200;44.582;2023-07-13T07:51:51;8.93;;;3.90;;
80681;SDS011;70045;40.200;44.582;2023-07-13T07:54:17;14.90;;;3.65;;
80681;SDS011;70045;40.200;44.582;2023-07-13T07:56:43;9.60;;;3.20;;
80681;SDS011;70045;40.200;44.582;2023-07-13T07:59:08;9.13;;;3.20;;
80681;SDS011;70045;40.200;44.582;2023-07-13T08:01:33;12.65;;;3.65;;
80681;SDS011;70045;40.200;44.582;2023-07-13T08:04:11;8.30;;;3.22;;
80681;SDS011;70045;40.200;44.582;2023-07-13T08:06:36;9.20;;;3.45;;
80681;SDS011;70045;40.200;44.582;2023-07-13T08:09:05;11.52;;;3.03;;
80681;SDS011;70045;40.200;44.582;2023-07-13T08:11:30;10.25;;;3.72;;
80681;SDS011;70045;40.200;44.582;2023-07-13T08:13:59;7.30;;;3.13;;
80681;SDS011;70045;40.200;44.582;2023-07-13T08:16:27;7.03;;;3.00;;
80681;SDS011;70045;40.200;44.582;2023-07-13T08:18:53;8.32;;;3.45;;
80681;SDS011;70045;40.200;44.582;2023-07-13T08:21:18;10.68;;;3.70;;
80681;SDS011;70045;40.200;44.582;2023-07-13T08:23:43;8.63;;;3.22;;
80681;SDS011;70045;40.200;44.582;2023-07-13T08:26:09;10.07;;;3.50;;
80681;SDS011;70045;40.200;44.582;2023-07-13T08:28:37;9.13;;;3.65;;
80681;SDS011;70045;40.200;44.582;2023-07-13T08:31:03;7.63;;;3.33;;
80681;SDS011;70045;40.200;44.582;2023-07-13T08:33:30;7.72;;;3.45;;
80681;SDS011;70045;40.200;44.582;2023-07-13T08:35:55;6.90;;;3.13;;
80681;SDS011;70045;40.200;44.582;2023-07-13T08:38:21;7.97;;;3.45;;
80681;SDS011;70045;40.200;44.582;2023-07-13T08:40:53;11.30;;;3.33;;
80681;SDS011;70045;40.200;44.582;2023-07-13T08:43:22;10.98;;;3.50;;
80681;SDS011;70045;40.200;44.582;2023-07-13T08:49:16;6.30;;;3.45;;
80681;SDS011;70045;40.200;44.582;2023-07-13T08:54:49;7.72;;;3.35;;
80681;SDS011;70045;40.200;44.582;2023-07-13T08:57:19;8.13;;;3.35;;
80681;SDS011;70045;40.200;44.582;2023-07-13T08:59:46;6.60;;;2.95;;
80681;SDS011;70045;40.200;44.582;2023-07-13T09:04:49;9.65;;;3.28;;
80681;SDS011;70045;40.200;44.582;2023-07-13T09:10:16;10.35;;;2.92;;
80681;SDS011;70045;40.200;44.582;2023-07-13T09:15:31;11.60;;;3.00;;
80681;SDS011;70045;40.200;44.582;2023-07-13T09:18:02;21.15;;;4.03;;
80681;SDS011;70045;40.200;44.582;2023-07-13T09:20:35;14.00;;;4.03;;
80681;SDS011;70045;40.200;44.582;2023-07-13T09:23:14;24.83;;;3.92;;
80681;SDS011;70045;40.200;44.582;2023-07-13T09:25:42;8.45;;;4.00;;
80681;SDS011;70045;40.200;44.582;2023-07-13T09:33:26;6.13;;;3.03;;
80681;SDS011;70045;40.200;44.582;2023-07-13T09:35:51;6.15;;;2.90;;
80681;SDS011;70045;40.200;44.582;2023-07-13T09:38:17;5.85;;;2.63;;
80681;SDS011;70045;40.200;44.582;2023-07-13T09:43:10;6.03;;;2.53;;
80681;SDS011;70045;40.200;44.582;2023-07-13T09:45:45;7.93;;;2.63;;
80681;SDS011;70045;40.200;44.582;2023-07-13T09:48:11;9.20;;;3.22;;
80681;SDS011;70045;40.200;44.582;2023-07-13T09:50:38;5.80;;;2.50;;
80681;SDS011;70045;40.200;44.582;2023-07-13T09:53:04;6.95;;;2.88;;
80681;SDS011;70045;40.200;44.582;2023-07-13T09:55:38;7.28;;;2.70;;
80681;SDS011;70045;40.200;44.582;2023-07-13T09:58:14;7.22;;;2.30;;
80681;SDS011;70045;40.200;44.582;2023-07-13T10:00:53;5.93;;;2.70;;
80681;SDS011;70045;40.200;44.582;2023-07-13T10:03:25;4.22;;;2.33;;
80681;SDS011;70045;40.200;44.582;2023-07-13T10:05:52;4.13;;;2.42;;
80681;SDS011;70045;40.200;44.582;2023-07-13T10:08:25;6.97;;;2.25;;
80681;SDS011;70045;40.200;44.582;2023-07-13T10:11:17;7.30;;;2.40;;
80681;SDS011;70045;40.200;44.582;2023-07-13T10:13:54;8.77;;;2.55;;
80681;SDS011;70045;40.200;44.582;2023-07-13T10:16:28;10.00;;;2.90;;
80681;SDS011;70045;40.200;44.582;2023-07-13T10:18:59;10.07;;;3.33;;
80681;SDS011;70045;40.200;44.582;2023-07-13T10:21:35;7.82;;;2.63;;
80681;SDS011;70045;40.200;44.582;2023-07-13T10:24:06;6.50;;;2.55;;
80681;SDS011;70045;40.200;44.582;2023-07-13T10:26:52;11.75;;;2.25;;
80681;SDS011;70045;40.200;44.582;2023-07-13T10:29:25;10.32;;;2.40;;
80681;SDS011;70045;40.200;44.582;2023-07-13T10:31:53;11.75;;;2.63;;
80681;SDS011;70045;40.200;44.582;2023-07-13T10:34:19;6.22;;;2.10;;
80681;SDS011;70045;40.200;44.582;2023-07-13T10:36:46;8.90;;;2.13;;
80681;SDS011;70045;40.200;44.582;2023-07-13T10:39:20;9.77;;;2.50;;
80681;SDS011;70045;40.200;44.582;2023-07-13T10:41:55;4.97;;;2.10;;
80681;SDS011;70045;40.200;44.582;2023-07-13T10:44:29;12.65;;;2.55;;
80681;SDS011;70045;40.200;44.582;2023-07-13T10:47:04;6.55;;;2.30;;
80681;SDS011;70045;40.200;44.582;2023-07-13T10:49:33;12.43;;;2.97;;
80681;SDS011;70045;40.200;44.582;2023-07-13T10:52:03;9.32;;;2.30;;
80681;SDS011;70045;40.200;44.582;2023-07-13T11:00:10;3.38;;;1.98;;
80681;SDS011;70045;40.200;44.582;2023-07-13T11:02:42;9.55;;;2.30;;
80681;SDS011;70045;40.200;44.582;2023-07-13T11:05:25;3.75;;;2.30;;
80681;SDS011;70045;40.200;44.582;2023-07-13T11:08:02;10.02;;;3.20;;
80681;SDS011;70045;40.200;44.582;2023-07-13T11:10:46;10.02;;;2.30;;
80681;SDS011;70045;40.200;44.582;2023-07-13T11:16:13;6.15;;;2.20;;
80681;SDS011;70045;40.200;44.582;2023-07-13T11:21:30;4.93;;;1.95;;
80681;SDS011;70045;40.200;44.582;2023-07-13T11:24:04;4.05;;;2.00;;
80681;SDS011;70045;40.200;44.582;2023-07-13T11:31:57;6.32;;;2.25;;
80681;SDS011;70045;40.200;44.582;2023-07-13T11:34:35;5.30;;;2.22;;
80681;SDS011;70045;40.200;44.582;2023-07-13T11:37:03;13.27;;;2.63;;
80681;SDS011;70045;40.200;44.582;2023-07-13T11:39:32;7.72;;;2.30;;
80681;SDS011;70045;40.200;44.582;2023-07-13T11:42:02;4.50;;;1.98;;
80681;SDS011;70045;40.200;44.582;2023-07-13T11:44:35;3.13;;;1.90;;
80681;SDS011;70045;40.200;44.582;2023-07-13T11:47:09;3.85;;;1.90;;
80681;SDS011;70045;40.200;44.582;2023-07-13T11:49:43;3.95;;;2.38;;
80681;SDS011;70045;40.200;44.582;2023-07-13T11:52:11;5.35;;;2.13;;
80681;SDS011;70045;40.200;44.582;2023-07-13T11:54:46;3.40;;;2.17;;
80681;SDS011;70045;40.200;44.582;2023-07-13T11:57:23;7.55;;;2.15;;
80681;SDS011;70045;40.200;44.582;2023-07-13T11:59:52;8.98;;;2.42;;
80681;SDS011;70045;40.200;44.582;2023-07-13T12:02:28;7.55;;;2.55;;
80681;SDS011;70045;40.200;44.582;2023-07-13T12:05:01;7.47;;;2.40;;
80681;SDS011;70045;40.200;44.582;2023-07-13T12:07:29;5.97;;;1.95;;
80681;SDS011;70045;40.200;44.582;2023-07-13T12:10:03;8.15;;;2.50;;
80681;SDS011;70045;40.200;44.582;2023-07-13T12:13:03;5.38;;;2.55;;
80681;SDS011;70045;40.200;44.582;2023-07-13T12:15:41;5.63;;;2.30;;
80681;SDS011;70045;40.200;44.582;2023-07-13T12:20:43;6.68;;;3.00;;
80681;SDS011;70045;40.200;44.582;2023-07-13T12:23:28;10.57;;;3.05;;
80681;SDS011;70045;40.200;44.582;2023-07-13T12:25:59;11.98;;;2.72;;
80681;SDS011;70045;40.200;44.582;2023-07-13T12:28:31;17.92;;;3.40;;
80681;SDS011;70045;40.200;44.582;2023-07-13T12:31:01;6.70;;;2.40;;
80681;SDS011;70045;40.200;44.582;2023-07-13T12:33:29;3.72;;;2.30;;
80681;SDS011;70045;40.200;44.582;2023-07-13T12:35:56;4.82;;;2.53;;
80681;SDS011;70045;40.200;44.582;2023-07-13T12:38:25;5.15;;;2.30;;
80681;SDS011;70045;40.200;44.582;2023-07-13T12:40:51;10.77;;;2.38;;
80681;SDS011;70045;40.200;44.582;2023-07-13T12:43:17;9.10;;;1.90;;
80681;SDS011;70045;40.200;44.582;2023-07-13T12:48:37;10.45;;;2.75;;
80681;SDS011;70045;40.200;44.582;2023-07-13T12:51:04;6.35;;;2.40;;
80681;SDS011;70045;40.200;44.582;2023-07-13T12:53:35;7.28;;;2.50;;
80681;SDS011;70045;40.200;44.582;2023-07-13T12:56:06;8.27;;;2.78;;
80681;SDS011;70045;40.200;44.582;2023-07-13T12:58:43;13.70;;;3.00;;
80681;SDS011;70045;40.200;44.582;2023-07-13T13:01:14;8.93;;;2.33;;
80681;SDS011;70045;40.200;44.582;2023-07-13T13:03:45;4.22;;;2.03;;
80681;SDS011;70045;40.200;44.582;2023-07-13T13:08:41;3.83;;;2.25;;
80681;SDS011;70045;40.200;44.582;2023-07-13T13:11:09;8.63;;;2.45;;
80681;SDS011;70045;40.200;44.582;2023-07-13T13:13:35;8.27;;;2.53;;
80681;SDS011;70045;40.200;44.582;2023-07-13T13:16:01;4.55;;;2.50;;
80681;SDS011;70045;40.200;44.582;2023-07-13T13:18:34;5.80;;;2.40;;
80681;SDS011;70045;40.200;44.582;2023-07-13T13:21:00;12.35;;;3.10;;
80681;SDS011;70045;40.200;44.582;2023-07-13T13:23:28;3.63;;;2.05;;
80681;SDS011;70045;40.200;44.582;2023-07-13T13:25:53;4.80;;;2.10;;
80681;SDS011;70045;40.200;44.582;2023-07-13T13:28:19;4.50;;;2.30;;
80681;SDS011;70045;40.200;44.582;2023-07-13T13:30:46;3.80;;;2.15;;
80681;SDS011;70045;40.200;44.582;2023-07-13T13:33:14;4.03;;;2.30;;
80681;SDS011;70045;40.200;44.582;2023-07-13T13:35:45;7.57;;;2.30;;
80681;SDS011;70045;40.200;44.582;2023-07-13T13:38:14;3.45;;;1.90;;
80681;SDS011;70045;40.200;44.582;2023-07-13T13:40:42;5.93;;;2.25;;
80681;SDS011;70045;40.200;44.582;2023-07-13T13:45:49;7.60;;;2.30;;
80681;SDS011;70045;40.200;44.582;2023-07-13T13:48:18;17.75;;;3.40;;
80681;SDS011;70045;40.200;44.582;2023-07-13T13:50:47;11.25;;;2.53;;
80681;SDS011;70045;40.200;44.582;2023-07-13T13:53:13;11.63;;;2.83;;
80681;SDS011;70045;40.200;44.582;2023-07-13T13:55:39;4.80;;;2.25;;
80681;SDS011;70045;40.200;44.582;2023-07-13T13:58:09;5.95;;;2.10;;
80681;SDS011;70045;40.200;44.582;2023-07-13T14:00:35;13.80;;;3.05;;
80681;SDS011;70045;40.200;44.582;2023-07-13T14:03:01;8.30;;;2.40;;
80681;SDS011;70045;40.200;44.582;2023-07-13T14:05:27;20.25;;;4.35;;
80681;SDS011;70045;40.200;44.582;2023-07-13T14:07:53;15.82;;;3.40;;
80681;SDS011;70045;40.200;44.582;2023-07-13T14:10:22;6.63;;;2.20;;
80681;SDS011;70045;40.200;44.582;2023-07-13T14:15:21;21.08;;;3.83;;
80681;SDS011;70045;40.200;44.582;2023-07-13T14:17:51;17.67;;;4.03;;
80681;SDS011;70045;40.200;44.582;2023-07-13T14:20:17;12.50;;;2.60;;
80681;SDS011;70045;40.200;44.582;2023-07-13T14:22:47;5.07;;;2.33;;
80681;SDS011;70045;40.200;44.582;2023-07-13T14:25:13;8.35;;;2.63;;
80681;SDS011;70045;40.200;44.582;2023-07-13T14:27:40;5.95;;;2.95;;
80681;SDS011;70045;40.200;44.582;2023-07-13T14:30:24;6.03;;;2.35;;
80681;SDS011;70045;40.200;44.582;2023-07-13T14:32:53;8.65;;;2.80;;
80681;SDS011;70045;40.200;44.582;2023-07-13T14:35:19;9.23;;;3.35;;
80681;SDS011;70045;40.200;44.582;2023-07-13T14:37:46;8.13;;;2.83;;
80681;SDS011;70045;40.200;44.582;2023-07-13T14:40:16;23.00;;;4.13;;
80681;SDS011;70045;40.200;44.582;2023-07-13T14:42:45;8.98;;;3.17;;
80681;SDS011;70045;40.200;44.582;2023-07-13T14:45:17;7.20;;;2.90;;
80681;SDS011;70045;40.200;44.582;2023-07-13T14:47:44;10.23;;;4.15;;
80681;SDS011;70045;40.200;44.582;2023-07-13T14:50:17;10.48;;;3.22;;
80681;SDS011;70045;40.200;44.582;2023-07-13T14:52:44;8.93;;;2.17;;
80681;SDS011;70045;40.200;44.582;2023-07-13T14:55:12;3.63;;;2.42;;
80681;SDS011;70045;40.200;44.582;2023-07-13T14:57:45;11.88;;;4.07;;
80681;SDS011;70045;40.200;44.582;2023-07-13T15:02:41;8.13;;;2.67;;
80681;SDS011;70045;40.200;44.582;2023-07-13T15:05:14;10.88;;;3.25;;
80681;SDS011;70045;40.200;44.582;2023-07-13T15:07:41;6.80;;;2.97;;
80681;SDS011;70045;40.200;44.582;2023-07-13T15:10:17;14.32;;;4.95;;
80681;SDS011;70045;40.200;44.582;2023-07-13T15:12:44;14.68;;;5.68;;
80681;SDS011;70045;40.200;44.582;2023-07-13T15:15:10;13.80;;;3.20;;
80681;SDS011;70045;40.200;44.582;2023-07-13T15:17:39;17.90;;;3.88;;
80681;SDS011;70045;40.200;44.582;2023-07-13T15:20:12;9.75;;;2.70;;
80681;SDS011;70045;40.200;44.582;2023-07-13T15:22:46;7.88;;;2.13;;
80681;SDS011;70045;40.200;44.582;2023-07-13T15:25:32;9.65;;;2.67;;
80681;SDS011;70045;40.200;44.582;2023-07-13T15:27:58;5.05;;;2.03;;
80681;SDS011;70045;40.200;44.582;2023-07-13T15:30:28;9.48;;;3.75;;
80681;SDS011;70045;40.200;44.582;2023-07-13T15:32:56;14.38;;;3.53;;
80681;SDS011;70045;40.200;44.582;2023-07-13T15:35:25;6.32;;;2.38;;
80681;SDS011;70045;40.200;44.582;2023-07-13T15:37:51;8.77;;;2.83;;
80681;SDS011;70045;40.200;44.582;2023-07-13T15:40:17;6.70;;;2.60;;
80681;SDS011;70045;40.200;44.582;2023-07-13T15:42:46;6.90;;;2.40;;
80681;SDS011;70045;40.200;44.582;2023-07-13T15:45:18;10.02;;;2.53;;
80681;SDS011;70045;40.200;44.582;2023-07-13T15:47:49;6.55;;;2.30;;
80681;SDS011;70045;40.200;44.582;2023-07-13T15:50:19;10.50;;;2.40;;
80681;SDS011;70045;40.200;44.582;2023-07-13T15:52:52;13.45;;;3.10;;
80681;SDS011;70045;40.200;44.582;2023-07-13T15:55:20;5.80;;;2.40;;
80681;SDS011;70045;40.200;44.582;2023-07-13T15:57:47;8.25;;;1.98;;
80681;SDS011;70045;40.200;44.582;2023-07-13T16:00:24;6.25;;;2.42;;
80681;SDS011;70045;40.200;44.582;2023-07-13T16:02:54;6.07;;;2.00;;
80681;SDS011;70045;40.200;44.582;2023-07-13T16:05:20;6.30;;;2.22;;
80681;SDS011;70045;40.200;44.582;2023-07-13T16:07:49;6.10;;;2.25;;
80681;SDS011;70045;40.200;44.582;2023-07-13T16:10:17;10.38;;;2.10;;
80681;SDS011;70045;40.200;44.582;2023-07-13T16:12:51;7.55;;;2.20;;
80681;SDS011;70045;40.200;44.582;2023-07-13T16:15:20;7.07;;;2.80;;
80681;SDS011;70045;40.200;44.582;2023-07-13T16:17:46;7.95;;;2.60;;
80681;SDS011;70045;40.200;44.582;2023-07-13T16:20:13;6.07;;;2.67;;
80681;SDS011;70045;40.200;44.582;2023-07-13T16:22:39;7.93;;;2.90;;
80681;SDS011;70045;40.200;44.582;2023-07-13T16:25:15;8.68;;;3.95;;
80681;SDS011;70045;40.200;44.582;2023-07-13T16:27:45;9.60;;;4.25;;
80681;SDS011;70045;40.200;44.582;2023-07-13T16:30:12;20.48;;;5.60;;
80681;SDS011;70045;40.200;44.582;2023-07-13T16:32:38;16.75;;;4.78;;
80681;SDS011;70045;40.200;44.582;2023-07-13T16:35:03;14.82;;;4.07;;
80681;SDS011;70045;40.200;44.582;2023-07-13T16:37:29;10.27;;;3.95;;
80681;SDS011;70045;40.200;44.582;2023-07-13T16:39:59;12.63;;;4.30;;
80681;SDS011;70045;40.200;44.582;2023-07-13T16:42:25;13.07;;;3.95;;
80681;SDS011;70045;40.200;44.582;2023-07-13T16:44:51;11.90;;;3.50;;
80681;SDS011;70045;40.200;44.582;2023-07-13T16:47:17;15.40;;;4.97;;
80681;SDS011;70045;40.200;44.582;2023-07-13T16:49:43;14.13;;;4.63;;
80681;SDS011;70045;40.200;44.582;2023-07-13T16:52:14;9.55;;;3.40;;
80681;SDS011;70045;40.200;44.582;2023-07-13T16:54:41;7.57;;;2.50;;
80681;SDS011;70045;40.200;44.582;2023-07-13T16:57:17;8.38;;;2.75;;
80681;SDS011;70045;40.200;44.582;2023-07-13T16:59:45;6.63;;;2.97;;
80681;SDS011;70045;40.200;44.582;2023-07-13T17:02:44;15.13;;;4.03;;
80681;SDS011;70045;40.200;44.582;2023-07-13T17:05:06;7.75;;;3.05;;
80681;SDS011;70045;40.200;44.582;2023-07-13T17:07:35;13.13;;;5.10;;
80681;SDS011;70045;40.200;44.582;2023-07-13T17:10:00;17.98;;;6.13;;
80681;SDS011;70045;40.200;44.582;2023-07-13T17:12:26;9.10;;;3.03;;
80681;SDS011;70045;40.200;44.582;2023-07-13T17:14:54;9.05;;;2.92;;
80681;SDS011;70045;40.200;44.582;2023-07-13T17:17:32;8.45;;;3.40;;
80681;SDS011;70045;40.200;44.582;2023-07-13T17:19:59;14.43;;;4.45;;
80681;SDS011;70045;40.200;44.582;2023-07-13T17:22:25;12.45;;;3.97;;
80681;SDS011;70045;40.200;44.582;2023-07-13T17:24:51;11.20;;;3.97;;
80681;SDS011;70045;40.200;44.582;2023-07-13T17:27:19;5.57;;;2.28;;
80681;SDS011;70045;40.200;44.582;2023-07-13T17:29:45;6.13;;;2.80;;
80681;SDS011;70045;40.200;44.582;2023-07-13T17:32:15;6.88;;;3.08;;
80681;SDS011;70045;40.200;44.582;2023-07-13T17:34:43;9.25;;;3.30;;
80681;SDS011;70045;40.200;44.582;2023-07-13T17:37:09;11.32;;;2.95;;
80681;SDS011;70045;40.200;44.582;2023-07-13T17:39:43;12.43;;;3.03;;
80681;SDS011;70045;40.200;44.582;2023-07-13T17:42:10;9.90;;;3.03;;
80681;SDS011;70045;40.200;44.582;2023-07-13T17:44:36;11.65;;;3.28;;
80681;SDS011;70045;40.200;44.582;2023-07-13T17:47:02;14.27;;;3.25;;
80681;SDS011;70045;40.200;44.582;2023-07-13T17:49:27;12.10;;;3.10;;
80681;SDS011;70045;40.200;44.582;2023-07-13T17:51:55;13.38;;;3.88;;
80681;SDS011;70045;40.200;44.582;2023-07-13T17:54:21;14.80;;;4.18;;
80681;SDS011;70045;40.200;44.582;2023-07-13T17:56:47;9.95;;;3.88;;
80681;SDS011;70045;40.200;44.582;2023-07-13T17:59:12;15.23;;;4.28;;
80681;SDS011;70045;40.200;44.582;2023-07-13T18:01:39;12.27;;;3.70;;
80681;SDS011;70045;40.200;44.582;2023-07-13T18:04:08;10.40;;;3.50;;
80681;SDS011;70045;40.200;44.582;2023-07-13T18:06:38;8.02;;;3.40;;
80681;SDS011;70045;40.200;44.582;2023-07-13T18:09:15;14.80;;;3.15;;
80681;SDS011;70045;40.200;44.582;2023-07-13T18:11:43;10.35;;;2.72;;
80681;SDS011;70045;40.200;44.582;2023-07-13T18:14:11;9.70;;;2.60;;
80681;SDS011;70045;40.200;44.582;2023-07-13T18:16:37;10.02;;;3.40;;
80681;SDS011;70045;40.200;44.582;2023-07-13T18:19:04;10.65;;;3.45;;
80681;SDS011;70045;40.200;44.582;2023-07-13T18:21:40;10.93;;;3.65;;
80681;SDS011;70045;40.200;44.582;2023-07-13T18:24:07;7.85;;;3.72;;
80681;SDS011;70045;40.200;44.582;2023-07-13T18:26:37;8.07;;;3.38;;
80681;SDS011;70045;40.200;44.582;2023-07-13T18:29:02;7.82;;;3.08;;
80681;SDS011;70045;40.200;44.582;2023-07-13T18:31:30;11.40;;;3.17;;
80681;SDS011;70045;40.200;44.582;2023-07-13T18:33:59;8.20;;;2.78;;
80681;SDS011;70045;40.200;44.582;2023-07-13T18:36:25;8.02;;;2.80;;
80681;SDS011;70045;40.200;44.582;2023-07-13T18:38:53;12.85;;;3.50;;
80681;SDS011;70045;40.200;44.582;2023-07-13T18:41:19;10.23;;;2.90;;
80681;SDS011;70045;40.200;44.582;2023-07-13T18:43:46;11.07;;;3.15;;
80681;SDS011;70045;40.200;44.582;2023-07-13T18:46:17;7.57;;;3.10;;
80681;SDS011;70045;40.200;44.582;2023-07-13T18:48:49;5.63;;;2.60;;
80681;SDS011;70045;40.200;44.582;2023-07-13T18:51:17;8.18;;;2.63;;